Time;durP1;ratioP1;P1;durP2;ratioP2;P2;SDS_P1;SDS_P2;PMS_P1;PMS_P2;Temp;Humidity;BMP_temperature;BMP_pressure;BME280_temperature;BME280_humidity;BME280_pressure;Samples;Min_cycle;Max_cycle;Signal;HPM_P1;HPM_P2
2023/09/02 00:09:16;;;;;;;11.50;8.10;;;;;;;16.21;78.20;98707.29;435295;1255;109359;-41
2023/09/02 00:19:24;;;;;;;11.30;7.00;;;;;;;16.18;78.51;98693.15;435301;1256;97912;-42
2023/09/02 00:29:30;;;;;;;7.90;5.00;;;;;;;16.25;79.02;98695.81;434959;1257;470275;-42
2023/09/02 00:39:38;;;;;;;11.40;7.40;;;;;;;16.18;79.02;98691.55;435242;1253;108057;-41
2023/09/02 00:49:44;;;;;;;9.80;7.00;;;;;;;16.06;79.12;98678.98;435337;1251;97477;-43
2023/09/02 00:59:51;;;;;;;9.60;8.20;;;;;;;15.97;79.46;98665.68;435284;1255;107552;-44
2023/09/02 01:09:58;;;;;;;11.50;7.90;;;;;;;15.93;79.73;98673.41;435300;1251;97989;-43
2023/09/02 01:20:18;;;;;;;14.70;8.90;;;;;;;15.86;80.12;98684.58;435151;1253;109550;-42
2023/09/02 01:30:26;;;;;;;15.80;8.60;;;;;;;15.75;80.47;98687.85;436286;1252;108485;-43
2023/09/02 01:40:35;;;;;;;12.30;9.40;;;;;;;15.74;80.88;98692.06;435548;1253;97460;-43
2023/09/02 01:50:44;;;;;;;11.30;8.80;;;;;;;15.68;80.94;98690.82;435716;1253;107650;-41
2023/09/02 02:00:50;;;;;;;13.60;8.20;;;;;;;15.66;81.49;98697.21;435682;1250;97834;-41
2023/09/02 02:11:00;;;;;;;10.50;8.00;;;;;;;15.78;81.76;98707.54;435699;1253;109870;-43
2023/09/02 02:21:07;;;;;;;10.60;8.30;;;;;;;15.86;82.02;98721.75;435385;1253;107088;-43
2023/09/02 02:31:13;;;;;;;11.00;7.80;;;;;;;15.83;82.11;98729.10;435394;1253;97926;-42
2023/09/02 02:41:20;;;;;;;10.40;7.30;;;;;;;15.79;82.48;98744.65;435612;1253;111873;-42
2023/09/02 02:51:27;;;;;;;12.30;7.20;;;;;;;15.78;82.40;98749.34;435525;1251;108591;-42
2023/09/02 03:01:38;;;;;;;7.60;6.00;;;;;;;15.66;82.43;98749.52;435344;1251;100156;-42
2023/09/02 03:11:45;;;;;;;7.70;6.50;;;;;;;15.75;82.95;98740.42;435417;1250;108082;-43
2023/09/02 03:21:52;;;;;;;9.80;6.60;;;;;;;15.86;82.92;98746.62;435411;1250;98304;-44
2023/09/02 03:31:58;;;;;;;8.70;6.60;;;;;;;15.73;82.91;98752.42;435538;1253;111960;-43
2023/09/02 03:42:03;;;;;;;8.10;7.00;;;;;;;15.76;83.28;98759.46;435427;1253;108111;-42
2023/09/02 03:52:09;;;;;;;7.80;6.20;;;;;;;15.75;83.26;98770.27;435491;1249;97858;-43
2023/09/02 04:02:15;;;;;;;7.60;5.60;;;;;;;15.58;83.21;98771.20;435390;1253;108669;-42
2023/09/02 04:12:21;;;;;;;6.20;5.60;;;;;;;15.59;83.76;98777.13;435461;1253;97919;-43
2023/09/02 04:22:29;;;;;;;7.70;6.40;;;;;;;15.69;83.95;98782.69;435514;1253;110806;-43
2023/09/02 04:32:36;;;;;;;8.10;6.20;;;;;;;15.73;84.08;98791.77;435345;1250;108568;-42
2023/09/02 04:42:43;;;;;;;7.40;6.70;;;;;;;15.72;84.06;98805.63;435491;1250;97794;-43
2023/09/02 04:52:50;;;;;;;8.50;6.20;;;;;;;15.96;84.31;98809.21;435385;1269;107393;-44
2023/09/02 05:13:04;;;;;;;6.10;4.80;;;;;;;16.44;84.31;98812.95;435452;1253;110825;-42
2023/09/02 05:23:12;;;;;;;6.80;5.60;;;;;;;16.60;84.21;98822.55;435288;1253;108527;-45
2023/09/02 05:43:28;;;;;;;4.70;4.30;;;;;;;17.42;83.78;98830.38;435446;1253;107024;-43
2023/09/02 05:53:35;;;;;;;6.60;5.00;;;;;;;18.02;83.81;98841.13;435447;1250;97450;-42
2023/09/02 06:03:43;;;;;;;5.40;4.90;;;;;;;18.13;83.08;98855.23;435355;1249;110409;-45
2023/09/02 06:13:50;;;;;;;9.30;6.50;;;;;;;17.98;82.75;98850.35;435386;1253;108081;-43
2023/09/02 06:23:55;;;;;;;11.80;6.20;;;;;;;18.34;83.29;98866.17;435441;1263;97919;-43
2023/09/02 06:34:02;;;;;;;6.50;5.30;;;;;;;19.50;83.45;98863.45;435467;1253;111162;-42
2023/09/02 06:44:09;;;;;;;8.50;4.20;;;;;;;20.89;83.07;98869.56;435475;1251;109347;-42
2023/09/02 06:54:15;;;;;;;10.90;5.30;;;;;;;22.10;81.30;98878.55;435686;1250;97870;-41
2023/09/02 07:04:25;;;;;;;4.40;3.60;;;;;;;22.71;79.13;98886.59;435596;1251;110547;-40
2023/09/02 07:14:32;;;;;;;4.30;3.70;;;;;;;22.99;77.41;98900.00;435338;1250;109309;-40
2023/09/02 07:24:39;;;;;;;3.70;3.00;;;;;;;23.07;76.16;98912.88;435628;1253;97938;-41
2023/09/02 07:34:46;;;;;;;4.00;2.90;;;;;;;22.97;74.16;98930.73;435510;1251;110339;-41
2023/09/02 07:44:53;;;;;;;3.70;2.70;;;;;;;23.04;72.71;98940.29;435475;1253;108010;-42
2023/09/02 07:55:00;;;;;;;5.50;2.90;;;;;;;22.11;71.36;98952.31;435438;1251;97889;-41
2023/09/02 08:15:18;;;;;;;3.60;2.00;;;;;;;22.15;72.01;98965.27;435364;1253;108734;-41
2023/09/02 08:25:26;;;;;;;3.00;2.10;;;;;;;22.11;70.59;98975.58;435308;1253;97142;-42
2023/09/02 08:45:47;;;;;;;5.00;2.50;;;;;;;22.89;69.89;98983.59;435521;1253;108168;-42
2023/09/02 08:55:55;;;;;;;2.20;2.00;;;;;;;23.25;68.55;99000.72;435409;1263;97893;-42
2023/09/02 09:16:09;;;;;;;1.80;1.70;;;;;;;23.03;65.66;99014.60;435667;1253;106253;-42
2023/09/02 09:26:16;;;;;;;1.90;1.40;;;;;;;23.33;64.06;99023.34;435361;1262;97963;-41
2023/09/02 09:36:23;;;;;;;2.50;1.60;;;;;;;23.33;63.06;99025.94;435424;1263;109106;-41
2023/09/02 09:46:29;;;;;;;2.40;1.40;;;;;;;23.51;62.57;99029.58;435838;1253;108139;-40
2023/09/02 09:56:43;;;;;;;2.90;2.10;;;;;;;23.75;61.63;99035.69;435939;1253;97864;-40
2023/09/02 10:16:56;;;;;;;2.00;1.60;;;;;;;23.09;61.49;99037.35;435584;1254;107104;-41
2023/09/02 10:27:12;;;;;;;9.90;5.80;;;;;;;23.61;61.13;99041.94;435739;1251;97483;-42
2023/09/02 10:47:36;;;;;;;3.40;1.60;;;;;;;23.15;59.86;99042.23;435753;1253;97890;-41
2023/09/02 10:57:50;;;;;;;1.90;1.50;;;;;;;22.80;58.61;99045.83;435476;1253;110688;-42
2023/09/02 11:08:21;;;;;;;2.30;1.90;;;;;;;22.95;58.83;99053.96;435752;1253;108662;-42
2023/09/02 11:28:35;;;;;;;;;;;;;;;23.93;58.77;99066.20;435711;1253;111479;-41
2023/09/02 11:38:42;;;;;;;2.30;1.90;;;;;;;24.09;56.98;99074.73;435463;1253;108331;-42
2023/09/02 11:48:48;;;;;;;4.70;2.20;;;;;;;23.91;56.71;99084.29;435397;1253;97040;-42
2023/09/02 11:58:55;;;;;;;4.70;2.20;;;;;;;23.63;57.24;99090.21;435319;1253;110477;-42
2023/09/02 12:09:02;;;;;;;3.20;1.80;;;;;;;23.55;57.72;99085.53;435330;1251;108062;-39
2023/09/02 12:19:09;;;;;;;3.00;2.10;;;;;;;23.49;58.00;99097.97;435487;1253;97470;-42
2023/09/02 12:29:16;;;;;;;3.10;2.30;;;;;;;23.38;57.85;99091.83;435106;1254;419287;-41
2023/09/02 12:39:24;;;;;;;2.40;1.60;;;;;;;23.39;58.44;99093.35;435497;1250;108888;-43
2023/09/02 12:49:31;;;;;;;2.90;1.90;;;;;;;23.26;58.59;99096.06;435532;1250;98095;-44
2023/09/02 12:59:38;;;;;;;1.90;1.80;;;;;;;23.10;58.57;99095.46;435299;1254;110343;-43
2023/09/02 13:09:44;;;;;;;;;;;;;;;23.23;59.07;99089.80;435427;1253;109773;-47
2023/09/02 13:19:53;;;;;;;2.10;1.90;;;;;;;23.35;59.22;99085.83;435510;1251;97749;-43
2023/09/02 13:40:05;;;;;;;3.80;1.70;;;;;;;23.45;58.75;99080.66;435583;1250;108101;-44
2023/09/02 13:50:11;;;;;;;1.80;1.30;;;;;;;23.30;58.73;99080.22;435411;1251;118255;-43
2023/09/02 14:00:25;;;;;;;2.10;1.90;;;;;;;23.27;58.57;99075.54;435427;1251;108077;-43
2023/09/02 14:10:31;;;;;;;4.90;2.40;;;;;;;23.27;58.79;99073.91;435540;1253;97882;-44
2023/09/02 14:30:45;;;;;;;1.50;1.40;;;;;;;23.19;59.07;99073.00;435596;1249;108663;-43
2023/09/02 14:50:59;;;;;;;1.90;1.70;;;;;;;23.39;59.06;99075.01;435529;1253;110744;-43
2023/09/02 15:01:06;;;;;;;2.70;1.60;;;;;;;23.23;58.85;99085.45;435517;1253;107617;-44
2023/09/02 15:11:14;;;;;;;1.90;1.80;;;;;;;22.90;58.91;99091.55;435655;1251;96642;-43
2023/09/02 15:21:22;;;;;;;2.20;1.70;;;;;;;22.69;59.67;99094.61;435507;1253;109812;-43
2023/09/02 15:31:27;;;;;;;2.50;2.10;;;;;;;22.46;59.83;99101.65;435319;1251;110308;-41
2023/09/02 15:41:35;;;;;;;2.30;2.10;;;;;;;22.27;60.43;99099.98;435496;1250;96697;-43
2023/09/02 16:01:45;;;;;;;4.00;2.90;;;;;;;21.98;61.36;99096.32;435424;1251;97884;-44
2023/09/02 16:11:53;;;;;;;3.10;2.40;;;;;;;21.79;61.64;99101.33;435242;1250;112101;-43
2023/09/02 16:32:07;;;;;;;4.00;2.30;;;;;;;21.61;62.67;99101.23;435723;1250;97889;-42
2023/09/02 16:42:15;;;;;;;3.00;2.50;;;;;;;21.30;63.18;99108.33;435724;1253;109868;-44
2023/09/02 16:52:22;;;;;;;4.10;2.30;;;;;;;21.10;63.99;99117.60;435409;1253;107600;-43
2023/09/02 17:02:34;;;;;;;4.50;3.10;;;;;;;20.96;64.59;99112.10;435837;1250;97871;-42
2023/09/02 17:22:48;;;;;;;10.20;4.40;;;;;;;20.46;65.95;99121.61;435689;1251;98157;-43
2023/09/02 17:32:56;;;;;;;11.50;5.00;;;;;;;20.05;66.48;99130.56;435824;1250;109941;-42
2023/09/02 17:43:03;;;;;;;10.00;6.50;;;;;;;19.71;67.05;99135.71;435775;1250;108827;-43
2023/09/02 17:53:09;;;;;;;16.80;7.40;;;;;;;19.39;67.93;99140.61;435555;1253;97692;-44
2023/09/02 18:03:17;;;;;;;6.90;5.70;;;;;;;19.03;68.65;99145.08;435654;1250;108972;-43
2023/09/02 18:23:31;;;;;;;11.80;6.80;;;;;;;18.58;69.87;99167.89;435422;1253;110552;-43
2023/09/02 18:33:37;;;;;;;10.70;6.40;;;;;;;18.42;70.74;99170.13;435490;1253;109375;-44
2023/09/02 18:43:43;;;;;;;13.40;7.20;;;;;;;18.42;71.31;99174.95;435602;1253;97960;-42
2023/09/02 18:53:50;;;;;;;11.70;8.90;;;;;;;18.15;71.54;99177.98;435492;1250;107429;-41
2023/09/02 19:03:57;;;;;;;15.60;7.80;;;;;;;17.88;72.27;99182.58;435479;1250;97906;-41
2023/09/02 19:14:01;;;;;;;10.80;7.60;;;;;;;17.71;72.69;99187.16;435376;1253;110315;-43
2023/09/02 19:24:09;;;;;;;15.00;7.60;;;;;;;17.59;73.27;99199.57;435591;1253;107544;-42
2023/09/02 19:34:16;;;;;;;12.50;7.40;;;;;;;17.50;73.61;99206.91;435392;1253;97983;-42
2023/09/02 19:44:27;;;;;;;18.20;9.00;;;;;;;17.22;73.97;99209.59;435623;1253;108553;-42
2023/09/02 19:54:33;;;;;;;26.70;17.80;;;;;;;17.09;74.35;99214.12;435460;1250;97912;-42
2023/09/02 20:04:39;;;;;;;27.30;18.70;;;;;;;16.97;74.65;99214.23;435519;1253;109926;-42
2023/09/02 20:24:51;;;;;;;26.90;18.80;;;;;;;17.02;75.61;99219.68;435496;1249;96687;-42
2023/09/02 20:34:58;;;;;;;24.40;16.20;;;;;;;17.11;76.12;99221.41;435618;1253;108492;-43
2023/09/02 21:05:15;;;;;;;20.40;16.80;;;;;;;17.22;76.79;99228.03;435522;1253;106710;-42
2023/09/02 21:15:23;;;;;;;18.30;13.80;;;;;;;16.97;76.96;99234.01;435429;1250;97909;-43
2023/09/02 21:35:37;;;;;;;14.00;11.90;;;;;;;17.12;77.96;99237.91;435417;1253;97899;-43
2023/09/02 21:45:44;;;;;;;13.40;10.80;;;;;;;17.26;78.17;99237.45;435642;1250;109858;-42
2023/09/02 21:55:50;;;;;;;14.20;10.30;;;;;;;17.39;78.54;99227.13;435357;1253;107904;-43
2023/09/02 22:06:05;;;;;;;15.00;10.10;;;;;;;17.51;78.77;99222.59;435530;1250;97900;-42
2023/09/02 22:16:12;;;;;;;12.50;10.80;;;;;;;17.52;78.84;99212.16;435508;1251;108128;-42
2023/09/02 22:26:20;;;;;;;13.90;9.60;;;;;;;17.40;78.78;99196.16;435375;1253;96641;-44
2023/09/02 22:36:27;;;;;;;13.40;10.00;;;;;;;17.34;79.11;99207.26;435345;1249;108575;-42
2023/09/02 22:56:40;;;;;;;12.30;10.10;;;;;;;17.09;79.35;99197.98;435557;1253;97474;-42
2023/09/02 23:06:47;;;;;;;16.80;12.30;;;;;;;16.81;79.30;99205.48;435343;1250;108329;-41
2023/09/02 23:16:55;;;;;;;14.00;10.80;;;;;;;16.66;79.72;99202.14;435325;1253;97871;-42
2023/09/02 23:37:07;;;;;;;16.10;11.80;;;;;;;16.70;80.21;99191.93;435320;1255;108419;-41
2023/09/02 23:47:14;;;;;;;16.80;12.10;;;;;;;16.74;80.45;99193.67;435359;1250;97589;-42
2023/09/02 23:57:19;;;;;;;15.70;11.20;;;;;;;16.72;80.74;99187.30;435329;1263;108382;-41
